createdAt,value
2024-03-11T09:11:17.379Z,8.18
2024-03-11T09:13:49.165Z,8.38
2024-03-11T09:16:20.773Z,8.68
2024-03-11T09:18:53.539Z,8.88
2024-03-11T09:21:25.217Z,9.20
2024-03-11T09:23:56.888Z,9.20
2024-03-11T09:26:28.564Z,9.39
2024-03-11T09:29:00.200Z,9.67
2024-03-11T09:31:31.846Z,9.89
2024-03-11T09:34:04.189Z,10.05
2024-03-11T09:36:37.275Z,9.98
2024-03-11T09:39:15.519Z,10.26
2024-03-11T09:41:51.203Z,10.12
2024-03-11T09:44:24.692Z,10.33
2024-03-11T09:46:57.266Z,10.54
2024-03-11T09:49:32.410Z,10.34
2024-03-11T09:52:04.744Z,10.67
2024-03-11T09:54:37.498Z,10.82
2024-03-11T09:57:09.418Z,10.72
2024-03-11T09:59:47.222Z,10.78
2024-03-11T10:02:28.163Z,10.28
2024-03-11T10:04:59.770Z,10.53
2024-03-11T10:07:31.565Z,10.19
2024-03-11T10:10:11.766Z,10.29
2024-03-11T10:12:59.452Z,10.13
2024-03-11T10:15:34.021Z,10.34
2024-03-11T10:18:26.495Z,10.41
2024-03-11T10:21:01.355Z,10.68
2024-03-11T10:23:32.957Z,11.06
2024-03-11T10:26:18.831Z,10.55
2024-03-11T10:28:50.896Z,10.74
2024-03-11T10:31:32.771Z,11.33
2024-03-11T10:34:15.141Z,11.33
2024-03-11T10:36:52.444Z,10.84
2024-03-11T10:39:24.509Z,11.46
2024-03-11T10:41:58.520Z,11.70
2024-03-11T10:44:34.719Z,12.15
2024-03-11T10:47:16.722Z,12.36
2024-03-11T10:49:51.754Z,12.33
2024-03-11T10:52:25.809Z,12.32
2024-03-11T10:57:46.832Z,12.50
2024-03-11T11:00:19.483Z,12.75
2024-03-11T11:02:59.571Z,13.20
2024-03-11T11:05:36.778Z,13.44
2024-03-11T11:08:08.504Z,13.34
2024-03-11T11:10:46.888Z,13.60
2024-03-11T11:13:22.706Z,13.46
2024-03-11T11:15:56.049Z,12.87
2024-03-11T11:18:28.910Z,12.69
2024-03-11T11:21:01.607Z,12.54
2024-03-11T11:23:36.444Z,12.84
2024-03-11T11:26:08.386Z,13.16
2024-03-11T11:28:40.851Z,13.10
2024-03-11T11:31:27.491Z,13.30
2024-03-11T11:34:06.210Z,12.40
2024-03-11T11:36:38.113Z,12.28
2024-03-11T11:39:16.145Z,11.86
2024-03-11T11:41:53.569Z,12.27
2024-03-11T11:44:35.032Z,12.37
2024-03-11T11:47:16.116Z,12.48
2024-03-11T11:49:49.693Z,12.26
2024-03-11T11:52:26.877Z,12.62
2024-03-11T11:55:08.277Z,13.07
2024-03-11T11:57:41.686Z,13.16
2024-03-11T12:00:21.439Z,13.45
2024-03-11T12:02:54.334Z,13.79
2024-03-11T12:05:25.782Z,14.33
2024-03-11T12:07:57.350Z,13.66
2024-03-11T12:10:29.381Z,13.55
2024-03-11T12:13:01.439Z,13.16
2024-03-11T12:15:35.386Z,13.18
2024-03-11T12:18:13.955Z,14.04
2024-03-11T12:20:45.519Z,14.69
2024-03-11T12:23:18.360Z,14.27
2024-03-11T12:25:50.708Z,14.76
2024-03-11T12:28:23.273Z,13.98
2024-03-11T12:30:55.165Z,14.91
2024-03-11T12:33:29.747Z,15.29
2024-03-11T12:36:06.078Z,15.97
2024-03-11T12:38:37.829Z,15.20
2024-03-11T12:41:10.847Z,15.66
2024-03-11T12:43:43.016Z,15.56
2024-03-11T12:46:18.378Z,14.97
2024-03-11T12:48:52.308Z,14.55
2024-03-11T12:51:24.159Z,15.27
2024-03-11T12:54:09.349Z,15.53
2024-03-11T12:56:43.722Z,15.35
2024-03-11T12:59:15.280Z,15.52
2024-03-11T13:01:47.158Z,14.83
2024-03-11T13:04:20.511Z,15.63
2024-03-11T13:06:55.005Z,15.62
2024-03-11T13:09:28.763Z,15.59
2024-03-11T13:12:09.307Z,16.25
2024-03-11T13:14:42.789Z,17.24
2024-03-11T13:17:15.168Z,17.94
2024-03-11T13:19:47.958Z,18.67
2024-03-11T13:22:19.704Z,19.12
2024-03-11T13:25:03.620Z,21.02
2024-03-11T13:27:36.091Z,20.71
2024-03-11T13:30:14.732Z,23.60
2024-03-11T13:32:46.740Z,23.62
2024-03-11T13:35:18.341Z,24.29
2024-03-11T13:37:49.854Z,24.05
2024-03-11T13:40:21.505Z,22.42
2024-03-11T13:42:53.246Z,22.44
2024-03-11T13:45:25.399Z,22.80
2024-03-11T13:48:00.423Z,23.91
2024-03-11T13:50:34.377Z,24.70
2024-03-11T13:53:08.408Z,24.48
2024-03-11T13:55:39.989Z,26.22
2024-03-11T13:58:14.747Z,27.65
2024-03-11T14:00:49.361Z,28.30
2024-03-11T14:03:22.075Z,26.27
2024-03-11T14:05:56.379Z,22.83
2024-03-11T14:08:29.457Z,20.93
2024-03-11T14:11:01.284Z,19.95
2024-03-11T14:13:34.316Z,20.06
2024-03-11T14:16:07.051Z,18.32
2024-03-11T14:18:41.877Z,16.54
2024-03-11T14:21:14.083Z,15.17
2024-03-11T14:23:45.934Z,15.51
2024-03-11T14:26:17.696Z,15.31
2024-03-11T14:28:53.711Z,15.00
2024-03-11T14:31:26.942Z,15.16
2024-03-11T14:33:58.607Z,15.11
2024-03-11T14:36:30.441Z,15.38
2024-03-11T14:39:02.067Z,15.20
2024-03-11T14:41:34.042Z,15.17
2024-03-11T14:44:07.534Z,14.58
2024-03-11T14:46:44.562Z,14.74
2024-03-11T14:49:24.898Z,14.83
2024-03-11T14:51:57.264Z,15.07
2024-03-11T14:54:31.106Z,15.02
2024-03-11T14:57:03.351Z,15.25
2024-03-11T14:59:36.426Z,15.12
2024-03-11T15:02:09.890Z,15.37
2024-03-11T15:04:41.662Z,15.13
2024-03-11T15:07:14.701Z,15.48
2024-03-11T15:09:46.412Z,15.88
2024-03-11T15:12:18.193Z,17.58
2024-03-11T15:14:49.808Z,20.47
2024-03-11T15:17:24.466Z,22.29
2024-03-11T15:19:56.572Z,22.06
2024-03-11T15:22:30.659Z,21.00
2024-03-11T15:25:02.322Z,21.69
2024-03-11T15:27:33.941Z,21.17
2024-03-11T15:30:09.021Z,21.06
2024-03-11T15:32:41.097Z,21.29
2024-03-11T15:35:12.488Z,21.16
2024-03-11T15:37:44.321Z,20.89
2024-03-11T15:40:16.798Z,19.24
2024-03-11T15:42:50.041Z,17.63
2024-03-11T15:45:22.578Z,16.92
2024-03-11T15:47:54.223Z,16.38
2024-03-11T15:50:27.486Z,15.75
2024-03-11T15:52:59.378Z,16.10
2024-03-11T15:55:33.188Z,15.51
2024-03-11T15:58:05.306Z,15.61
2024-03-11T16:00:37.867Z,15.09
2024-03-11T16:03:10.282Z,14.96
2024-03-11T16:05:41.892Z,14.94
2024-03-11T16:08:20.948Z,14.86
2024-03-11T16:10:53.835Z,14.95
2024-03-11T16:13:25.502Z,14.84
2024-03-11T16:15:57.140Z,14.82
2024-03-11T16:18:29.574Z,14.48
2024-03-11T16:21:01.769Z,14.51
2024-03-11T16:23:34.237Z,14.49
2024-03-11T16:26:05.862Z,14.16
2024-03-11T16:28:37.902Z,13.79
2024-03-11T16:31:10.858Z,13.43
2024-03-11T16:33:44.304Z,13.51
2024-03-11T16:36:16.343Z,13.51
2024-03-11T16:38:52.824Z,13.40
2024-03-11T16:41:27.011Z,13.09
2024-03-11T16:43:59.022Z,13.07
2024-03-11T16:46:30.825Z,13.13
2024-03-11T16:49:03.910Z,12.98
2024-03-11T16:51:35.568Z,12.70
2024-03-11T16:54:10.654Z,12.67
2024-03-11T16:56:46.051Z,12.67
2024-03-11T16:59:18.184Z,12.74
2024-03-11T17:01:52.952Z,12.72
2024-03-11T17:04:24.632Z,12.81
2024-03-11T17:06:59.088Z,12.74
2024-03-11T17:09:30.990Z,12.72
2024-03-11T17:12:02.591Z,12.65
2024-03-11T17:14:34.194Z,12.66
2024-03-11T17:17:07.144Z,12.57
2024-03-11T17:19:39.162Z,12.59
2024-03-11T17:22:11.697Z,12.54
2024-03-11T17:24:43.367Z,12.45
2024-03-11T17:27:19.049Z,12.43
2024-03-11T17:29:50.648Z,12.31
2024-03-11T17:32:22.220Z,12.27
2024-03-11T17:34:53.755Z,12.13
2024-03-11T17:37:25.409Z,12.05
2024-03-11T17:39:57.106Z,12.02
2024-03-11T17:42:28.841Z,12.00
2024-03-11T17:45:02.375Z,11.83
2024-03-11T17:47:33.997Z,11.77
2024-03-11T17:50:08.308Z,11.70
2024-03-11T17:52:47.152Z,11.66
2024-03-11T17:55:27.405Z,11.71
2024-03-11T17:58:01.072Z,11.78
2024-03-11T18:00:34.977Z,11.68
2024-03-11T18:03:09.578Z,11.69
2024-03-11T18:05:41.786Z,11.69
2024-03-11T18:08:15.196Z,11.64
2024-03-11T18:10:47.308Z,11.43
2024-03-11T18:13:19.046Z,11.44
2024-03-11T18:15:50.759Z,11.46
2024-03-11T18:18:22.512Z,11.54
2024-03-11T18:20:55.633Z,11.35
2024-03-11T18:23:27.754Z,11.30
2024-03-11T18:26:00.913Z,11.31
2024-03-11T18:28:33.149Z,11.38
2024-03-11T18:31:07.132Z,11.35
2024-03-11T18:33:38.952Z,11.28
2024-03-11T18:36:11.006Z,11.31
2024-03-11T18:38:44.001Z,11.27
2024-03-11T18:41:15.587Z,11.26
2024-03-11T18:43:48.334Z,11.28
2024-03-11T18:46:19.929Z,11.15
2024-03-11T18:48:51.640Z,11.12
2024-03-11T18:51:23.659Z,11.09
2024-03-11T18:53:55.370Z,11.02
2024-03-11T18:56:26.963Z,10.98
2024-03-11T18:58:58.542Z,10.93
2024-03-11T19:01:30.236Z,10.96
2024-03-11T19:04:04.658Z,10.92
2024-03-11T19:06:36.353Z,10.90
2024-03-11T19:09:09.248Z,10.69
2024-03-11T19:11:41.974Z,10.67
2024-03-11T19:14:15.457Z,10.63
2024-03-11T19:16:47.321Z,10.58
2024-03-11T19:19:19.572Z,10.61
2024-03-11T19:21:52.992Z,10.63
2024-03-11T19:24:25.020Z,10.60
2024-03-11T19:27:03.188Z,10.66
2024-03-11T19:29:37.049Z,10.63
